logo
Rechercher aéroport 
image banner adimage banner adimage banner ad
image banner ad

CL00 - Usc University Hospital

Situé à Los Angeles, United States

ICAO - CL00, IATA -

Données fournies par Airmate  

Information générale

Coordonnées: N34°3'42" W118°12'6"
Élévation : 476 feet MSL.
Variation magnétique : 14° East
Voir autres Aéroports à California

Données opérationnelles

Special qualification required
Heure actuelle UTC:
Heure actuelle locale:
Météo à : KEMT - San Gabriel Valley ( 16 km )
METAR: KEMT 261445Z 00000KT 10SM CLR 20/15 A2992
Voir NOTAMs / SUP AIP / TFR affectant cet aéroport [VIEW]
Fréquences de communication: [VIEW]

Pistes:

Coordonnées de l'aéroport

Adresse: Los Angeles United States

Vue satellite de CL00